Portada
METAR-TAF:

METAR-TAF

Aeroports :

Karachi, Pakistan

latitud: 24-54N, longitud: 067-08E, altitud: 21 m

Observació

L'informe es va fer fa 25 minuts, a les 10:00 UTC
Vent 7 kt del Oest
Temperatura 30°C
Humitat 43%
Pressió 1012 hPa
Visibilitat: 7000 m

METAR: OPKC 261000Z 27007KT 7000 NSC 30/16 Q1012 NOSIG

Hora: 15:25 (10:25 UTC)

Pronòstic

L'informe es va fer fa 6 hores i 55 minuts, a les 03:30 UTC
Pronòstic vàlid del 26 a les 06 UTC al 27 a les 12 UTC
Vent 10 kt del Oest amb ràfegues de 20 kt
Visibilitat: 6000 m
Evolucionant progressivament
l' 26 a les 12 UTC al 26 a les 14 UTC
Vent 5 kt del Sud-Oest amb ràfegues de 15 kt
Visibilitat: 6000 m
Temporalment
l' 27 a les 01 UTC al 27 a les 05 UTC
Vent 6 kt del Oest
Visibilitat: 1000 m
boirina

TAF: OPKC 260330Z 2606/2712 27010G20KT 6000 NSC BECMG 2612/2614 23005G15KT 6000 NSC TEMPO 2701/2705 27006KT 1000 BR NSC

Observacions i pronòstics meteorològics de més de 4000 aeroports (METAR i TAF).

Les estacions disponibles són els punts grocs i vermells al mapa.

Posi el ratolí al punt desitjat per veure el nom de l'estació.

Feu clic per veure les observacions i els pronòstics meteorològics.

Per canviar el mapa: feu clic els botons verds amb una creu de color negre per apropar; al botó verd amb un guió per allunyar la imatge; o en les fletxes verdes per a mapes adjacents.


METAR-TAF: